Time;durP1;ratioP1;P1;durP2;ratioP2;P2;SDS_P1;SDS_P2;PMS_P1;PMS_P2;Temp;Humidity;BMP_temperature;BMP_pressure;BME280_temperature;BME280_humidity;BME280_pressure;Samples;Min_cycle;Max_cycle;Signal;HPM_P1;HPM_P2
2024/01/20 00:01:21;;;;;;;15.00;13.47;;;-1.20;99.90;;;;;;5027848;28;20273;-36
2024/01/20 00:03:46;;;;;;;15.02;13.93;;;-1.20;99.90;;;;;;5033930;28;20196;-37
2024/01/20 00:06:12;;;;;;;14.07;13.17;;;-1.20;99.90;;;;;;5028289;28;20949;-37
2024/01/20 00:08:38;;;;;;;15.27;13.80;;;-1.20;1.00;;;;;;5037161;28;20512;-47
2024/01/20 00:11:03;;;;;;;14.03;13.00;;;-1.20;1.00;;;;;;5027647;28;20174;-38
2024/01/20 00:13:29;;;;;;;15.20;14.03;;;-1.30;1.00;;;;;;5024352;28;20569;-38
2024/01/20 00:15:55;;;;;;;14.70;13.50;;;-1.30;1.00;;;;;;5009774;28;20304;-38
2024/01/20 00:18:21;;;;;;;13.60;12.50;;;-1.30;99.90;;;;;;5034736;28;20291;-38
2024/01/20 00:20:46;;;;;;;13.93;12.83;;;-1.30;99.90;;;;;;5041090;28;20189;-38
2024/01/20 00:23:13;;;;;;;13.03;12.33;;;-1.30;93.60;;;;;;5032537;28;20214;-38
2024/01/20 00:25:40;;;;;;;14.00;13.07;;;-1.30;1.00;;;;;;5039666;28;20200;-38
2024/01/20 00:28:05;;;;;;;14.27;13.15;;;-1.30;1.00;;;;;;5028714;28;20206;-40
2024/01/20 00:30:31;;;;;;;14.37;13.37;;;-1.50;99.90;;;;;;5034552;28;20193;-37
2024/01/20 00:32:56;;;;;;;14.27;13.37;;;-1.50;99.90;;;;;;5030754;28;20520;-40
2024/01/20 00:35:22;;;;;;;14.20;13.20;;;-1.70;1.00;;;;;;5036377;28;20275;-39
2024/01/20 00:37:47;;;;;;;13.30;12.40;;;-1.80;99.90;;;;;;5022499;28;20186;-39
2024/01/20 00:40:14;;;;;;;13.80;12.70;;;-1.80;99.90;;;;;;5038987;28;20181;-37
2024/01/20 00:42:39;;;;;;;15.13;13.55;;;-1.80;91.00;;;;;;5032734;28;20633;-38
2024/01/20 00:45:06;;;;;;;14.43;13.17;;;-1.70;1.00;;;;;;5038893;28;20189;-38
2024/01/20 00:47:32;;;;;;;15.68;14.23;;;-1.70;1.00;;;;;;5026362;28;20796;-37
2024/01/20 00:49:57;;;;;;;13.50;12.40;;;-1.70;1.00;;;;;;5039180;28;20181;-38
2024/01/20 00:52:23;;;;;;;13.13;12.13;;;-1.80;1.00;;;;;;5030238;28;20714;-38
2024/01/20 00:54:50;;;;;;;14.00;13.10;;;-1.80;99.90;;;;;;5030192;28;20189;-48
2024/01/20 00:57:16;;;;;;;13.43;12.63;;;-2.00;1.00;;;;;;5029151;28;20179;-51
2024/01/20 00:59:42;;;;;;;14.10;13.00;;;-2.10;1.00;;;;;;5038886;28;20193;-55
2024/01/20 01:02:07;;;;;;;13.77;12.67;;;-2.10;30.90;;;;;;5025961;28;20186;-51
2024/01/20 01:04:33;;;;;;;14.83;13.50;;;-2.20;99.90;;;;;;5038502;28;20190;-54
2024/01/20 01:06:58;;;;;;;13.93;12.93;;;-2.30;18.40;;;;;;5040516;28;20209;-51
2024/01/20 01:09:24;;;;;;;14.03;13.03;;;-2.30;1.00;;;;;;5037763;28;20182;-55
2024/01/20 01:11:50;;;;;;;14.60;13.60;;;-2.40;1.00;;;;;;5028793;28;20227;-56
2024/01/20 01:14:15;;;;;;;14.00;13.10;;;-2.50;1.00;;;;;;5010312;28;21064;-47
2024/01/20 01:16:41;;;;;;;14.60;13.50;;;-2.40;99.90;;;;;;5031822;28;20284;-55
2024/01/20 01:19:06;;;;;;;13.23;12.30;;;-2.40;1.00;;;;;;5029079;28;20219;-50
2024/01/20 01:21:32;;;;;;;15.23;14.03;;;-2.40;1.00;;;;;;5036188;28;20413;-52
2024/01/20 01:23:58;;;;;;;13.55;12.65;;;-2.50;99.90;;;;;;5025695;28;20543;-53
2024/01/20 01:26:24;;;;;;;13.60;12.70;;;-2.60;1.00;;;;;;5034593;28;20183;-53
2024/01/20 01:28:49;;;;;;;14.27;13.17;;;-2.60;99.90;;;;;;5033401;28;20302;-49
2024/01/20 01:31:15;;;;;;;14.30;13.20;;;-2.60;1.00;;;;;;5039717;28;20188;-50
2024/01/20 01:33:40;;;;;;;13.90;12.80;;;-2.60;1.00;;;;;;5026595;28;20275;-48
2024/01/20 01:36:06;;;;;;;13.00;12.00;;;-2.60;1.00;;;;;;5039408;28;20232;-51
2024/01/20 01:38:32;;;;;;;13.90;13.10;;;-2.70;1.00;;;;;;5026799;28;20196;-53
2024/01/20 01:40:58;;;;;;;13.97;13.17;;;-2.80;1.00;;;;;;5039080;28;20430;-48
2024/01/20 01:43:25;;;;;;;13.43;12.53;;;-2.90;1.00;;;;;;5035403;28;20809;-47
2024/01/20 01:45:51;;;;;;;14.68;13.30;;;-2.90;99.90;;;;;;5039614;28;20456;-56
2024/01/20 01:48:16;;;;;;;13.73;12.63;;;-2.70;1.00;;;;;;5036837;28;20283;-52
2024/01/20 01:50:42;;;;;;;15.27;14.27;;;-2.60;1.00;;;;;;5039126;28;20926;-53
2024/01/20 01:53:09;;;;;;;13.60;12.50;;;-2.50;1.00;;;;;;5029355;28;20970;-54
2024/01/20 01:55:35;;;;;;;12.40;11.50;;;-2.40;99.90;;;;;;5031932;28;20437;-53
2024/01/20 01:58:03;;;;;;;12.10;11.33;;;-2.20;20.40;;;;;;5034119;28;20195;-51
2024/01/20 02:00:29;;;;;;;13.55;12.55;;;-2.00;1.00;;;;;;5030005;28;20511;-50
2024/01/20 02:02:55;;;;;;;14.25;12.88;;;-1.90;99.90;;;;;;5027913;28;20610;-50
2024/01/20 02:05:21;;;;;;;14.40;13.30;;;-1.90;99.90;;;;;;5029749;28;20588;-53
2024/01/20 02:07:48;;;;;;;13.73;12.60;;;-1.80;99.90;;;;;;5039239;28;20204;-53
2024/01/20 02:10:16;;;;;;;13.68;12.88;;;-1.90;1.00;;;;;;5031490;28;20672;-51
2024/01/20 02:12:42;;;;;;;13.80;12.90;;;-1.90;1.00;;;;;;5002467;28;20225;-41
2024/01/20 02:15:09;;;;;;;13.80;12.80;;;-1.90;1.00;;;;;;5022948;28;20174;-49
2024/01/20 02:17:35;;;;;;;14.07;13.15;;;-1.70;99.90;;;;;;5037894;28;20192;-50
2024/01/20 02:20:01;;;;;;;13.70;12.80;;;-1.80;99.90;;;;;;5036277;28;20235;-53
2024/01/20 02:22:27;;;;;;;14.73;13.57;;;-1.80;18.30;;;;;;5035630;28;20185;-46
2024/01/20 02:24:53;;;;;;;13.27;12.47;;;-1.70;29.50;;;;;;5023036;28;20248;-53
2024/01/20 02:27:19;;;;;;;14.73;13.70;;;-1.70;99.90;;;;;;5037669;28;20236;-50
2024/01/20 02:29:45;;;;;;;12.90;12.10;;;-1.80;1.00;;;;;;5028230;28;20325;-46
2024/01/20 02:32:10;;;;;;;13.03;12.03;;;-1.70;1.00;;;;;;5037702;28;20177;-53
2024/01/20 02:34:37;;;;;;;12.50;11.70;;;-1.70;1.00;;;;;;5025262;28;20417;-46
2024/01/20 02:37:04;;;;;;;14.25;13.35;;;-1.80;1.00;;;;;;5038100;28;20287;-51
2024/01/20 02:39:29;;;;;;;14.18;13.18;;;-1.80;1.00;;;;;;5031140;28;20269;-51
2024/01/20 02:41:55;;;;;;;14.10;13.17;;;-1.90;1.00;;;;;;5040741;28;20649;-48
2024/01/20 02:44:21;;;;;;;13.93;12.90;;;-1.90;1.00;;;;;;5039271;28;20185;-53
2024/01/20 02:46:46;;;;;;;14.77;13.33;;;-1.90;1.00;;;;;;5041632;28;20187;-53
2024/01/20 02:49:12;;;;;;;12.83;12.13;;;-2.00;1.00;;;;;;5038978;28;20182;-53
2024/01/20 02:51:37;;;;;;;12.97;12.20;;;-2.10;1.00;;;;;;5044023;28;20238;-53
2024/01/20 02:54:03;;;;;;;14.87;13.73;;;-2.10;1.00;;;;;;5038594;28;20299;-54
2024/01/20 02:56:29;;;;;;;13.60;12.70;;;-2.10;1.00;;;;;;5043912;28;20286;-52
2024/01/20 02:58:54;;;;;;;13.80;13.00;;;-2.30;1.00;;;;;;5044996;28;20259;-51
2024/01/20 03:01:20;;;;;;;12.90;12.10;;;-2.30;99.90;;;;;;5043668;28;20192;-53
2024/01/20 03:03:45;;;;;;;13.60;12.60;;;-2.30;99.90;;;;;;5033290;28;20183;-53
2024/01/20 03:06:11;;;;;;;13.73;12.50;;;-2.40;99.90;;;;;;5031142;28;20224;-55
2024/01/20 03:08:37;;;;;;;12.18;11.48;;;-2.50;99.90;;;;;;5045073;28;20227;-48
2024/01/20 03:11:03;;;;;;;14.27;13.33;;;-2.50;99.90;;;;;;5029167;28;20262;-55
2024/01/20 03:13:29;;;;;;;13.13;12.23;;;-2.50;1.00;;;;;;5038380;28;20287;-48
2024/01/20 03:15:54;;;;;;;12.80;12.07;;;-2.60;1.00;;;;;;5032581;28;20413;-55
2024/01/20 03:18:20;;;;;;;13.20;12.40;;;-2.70;99.90;;;;;;5038712;28;20958;-52
2024/01/20 03:20:45;;;;;;;13.27;12.27;;;-2.60;99.90;;;;;;5038411;28;20234;-53
2024/01/20 03:23:11;;;;;;;13.93;12.90;;;-2.60;99.90;;;;;;5038964;28;20210;-51
2024/01/20 03:25:37;;;;;;;13.40;12.60;;;-2.60;99.90;;;;;;5040868;28;20197;-50
2024/01/20 03:28:04;;;;;;;14.25;12.80;;;-2.70;1.00;;;;;;5038544;28;20318;-54
2024/01/20 03:30:29;;;;;;;13.73;12.67;;;-2.60;1.00;;;;;;5044695;28;20267;-50
2024/01/20 03:32:56;;;;;;;13.60;12.63;;;-2.60;22.90;;;;;;5034116;28;20168;-51
2024/01/20 03:35:22;;;;;;;14.27;13.15;;;-2.70;99.90;;;;;;5042287;28;20264;-56
2024/01/20 03:37:48;;;;;;;15.05;14.05;;;-2.70;1.00;;;;;;5038452;28;20537;-52
2024/01/20 03:40:14;;;;;;;14.77;13.60;;;-2.80;1.00;;;;;;5044759;28;20187;-53
2024/01/20 03:42:40;;;;;;;13.43;12.52;;;-2.70;1.00;;;;;;5044974;28;20202;-54
2024/01/20 03:45:06;;;;;;;13.13;12.23;;;-2.50;99.90;;;;;;5040895;28;20196;-37
2024/01/20 03:47:31;;;;;;;13.20;12.40;;;-2.50;97.60;;;;;;5045198;28;20222;-38
2024/01/20 03:49:57;;;;;;;14.33;13.20;;;-2.50;1.00;;;;;;5039067;28;20170;-37
2024/01/20 03:52:23;;;;;;;12.60;11.60;;;-2.50;1.00;;;;;;5037556;28;20209;-37
2024/01/20 03:54:48;;;;;;;13.37;12.50;;;-2.40;1.00;;;;;;5021371;28;20188;-38
2024/01/20 03:57:14;;;;;;;13.77;12.87;;;-2.40;1.00;;;;;;5024934;28;20194;-38
2024/01/20 03:59:39;;;;;;;13.00;12.30;;;-2.50;1.00;;;;;;5027859;28;20647;-38
2024/01/20 04:02:05;;;;;;;13.17;12.33;;;-2.50;1.00;;;;;;5024764;28;20193;-37
2024/01/20 04:04:31;;;;;;;13.37;12.50;;;-2.60;1.00;;;;;;5032507;28;20179;-38
2024/01/20 04:06:57;;;;;;;14.18;13.07;;;-2.70;1.00;;;;;;5034665;28;20262;-38
2024/01/20 04:09:23;;;;;;;13.07;12.37;;;-2.70;1.00;;;;;;5031896;28;20641;-39
2024/01/20 04:11:48;;;;;;;13.50;12.53;;;-2.70;1.00;;;;;;5034465;28;20260;-39
2024/01/20 04:14:14;;;;;;;13.77;12.57;;;-2.60;99.90;;;;;;5041194;28;20220;-38
2024/01/20 04:16:39;;;;;;;13.70;12.80;;;-2.70;99.90;;;;;;5035232;28;20181;-38
2024/01/20 04:19:05;;;;;;;13.93;12.93;;;-2.80;99.90;;;;;;5034875;28;20255;-38
2024/01/20 04:21:31;;;;;;;14.10;13.10;;;-2.70;39.20;;;;;;5022867;28;20667;-37
2024/01/20 04:23:56;;;;;;;13.37;12.57;;;-2.60;1.00;;;;;;5025931;28;20215;-38
2024/01/20 04:26:22;;;;;;;13.13;12.43;;;-2.60;1.00;;;;;;5027806;28;20540;-38
2024/01/20 04:28:47;;;;;;;13.37;12.47;;;-2.60;1.00;;;;;;5034611;28;20233;-38
2024/01/20 04:31:13;;;;;;;13.70;12.90;;;-2.70;1.00;;;;;;5033921;28;20196;-38
2024/01/20 04:33:40;;;;;;;12.10;11.40;;;-2.70;1.00;;;;;;5026203;28;20595;-37
2024/01/20 04:36:06;;;;;;;13.27;12.48;;;-2.70;1.00;;;;;;5034007;28;20171;-38
2024/01/20 04:38:32;;;;;;;13.23;12.43;;;-2.80;1.00;;;;;;5038951;28;20217;-38
2024/01/20 04:40:58;;;;;;;13.50;12.60;;;-2.80;1.00;;;;;;5039366;28;20752;-38
2024/01/20 04:43:23;;;;;;;13.73;12.83;;;-2.80;1.00;;;;;;5039418;28;20424;-37
2024/01/20 04:45:49;;;;;;;14.13;13.03;;;-2.80;1.00;;;;;;5039173;28;20196;-38
2024/01/20 04:48:16;;;;;;;14.20;13.10;;;-2.80;1.00;;;;;;5034233;28;20193;-38
2024/01/20 04:50:42;;;;;;;13.55;12.40;;;-2.80;1.00;;;;;;5040404;28;20192;-37
2024/01/20 04:53:07;;;;;;;13.65;12.65;;;-2.80;1.00;;;;;;5038361;28;20188;-46
2024/01/20 04:55:33;;;;;;;13.37;12.47;;;-2.80;1.00;;;;;;5040245;28;20178;-51
2024/01/20 04:57:58;;;;;;;13.67;12.77;;;-2.80;1.00;;;;;;5036804;28;20180;-54
2024/01/20 05:00:24;;;;;;;12.83;12.03;;;-2.90;5.20;;;;;;5032222;28;21137;-54
2024/01/20 05:02:49;;;;;;;13.93;13.13;;;-2.90;99.90;;;;;;5028685;28;20194;-53
2024/01/20 05:05:15;;;;;;;13.43;12.53;;;-2.90;99.90;;;;;;5040084;28;20217;-48
2024/01/20 05:07:41;;;;;;;13.50;12.70;;;-3.00;99.90;;;;;;5029969;28;20202;-50
2024/01/20 05:10:06;;;;;;;13.37;12.47;;;-3.00;99.90;;;;;;5040853;28;20676;-53
2024/01/20 05:12:32;;;;;;;13.00;12.30;;;-3.00;99.90;;;;;;5027022;28;20183;-52
2024/01/20 05:14:58;;;;;;;13.60;12.70;;;-3.00;99.90;;;;;;5026194;28;20408;-51
2024/01/20 05:17:23;;;;;;;13.70;12.80;;;-3.00;99.90;;;;;;5032575;28;20193;-52
2024/01/20 05:19:49;;;;;;;12.80;11.80;;;-3.10;99.90;;;;;;5040298;28;20774;-55
2024/01/20 05:22:17;;;;;;;12.90;12.00;;;-3.10;99.90;;;;;;5036217;28;20590;-51
2024/01/20 05:24:42;;;;;;;13.90;13.02;;;-3.10;99.90;;;;;;5040549;28;20223;-49
2024/01/20 05:27:08;;;;;;;13.30;12.50;;;-3.00;1.00;;;;;;5038167;28;20677;-48
2024/01/20 05:29:34;;;;;;;13.27;12.47;;;-3.10;99.90;;;;;;5033085;28;20190;-51
2024/01/20 05:32:00;;;;;;;14.02;13.07;;;-3.10;99.90;;;;;;5033349;28;20602;-48
2024/01/20 05:34:25;;;;;;;12.27;11.57;;;-3.10;99.90;;;;;;5032263;28;20259;-52
2024/01/20 05:36:51;;;;;;;12.20;11.40;;;-3.10;99.90;;;;;;5035254;28;20234;-51
2024/01/20 05:39:17;;;;;;;12.00;11.40;;;-3.10;99.90;;;;;;5039454;28;20184;-53
2024/01/20 05:41:42;;;;;;;12.90;11.90;;;-3.10;1.00;;;;;;5038000;28;20415;-53
2024/01/20 05:44:08;;;;;;;13.27;12.37;;;-3.10;1.00;;;;;;5031088;28;20182;-53
2024/01/20 05:46:34;;;;;;;13.20;12.25;;;-3.30;99.90;;;;;;5039973;28;20179;-37
2024/01/20 05:48:59;;;;;;;13.07;12.27;;;-3.30;1.00;;;;;;5022225;28;20257;-37
2024/01/20 05:51:25;;;;;;;13.93;13.03;;;-3.30;99.90;;;;;;5037471;28;20174;-37
2024/01/20 05:53:51;;;;;;;14.40;13.27;;;-3.40;1.00;;;;;;5032731;28;20645;-36
2024/01/20 05:56:20;;;;;;;11.93;11.23;;;-3.40;99.90;;;;;;5033245;28;20183;-36
2024/01/20 05:58:46;;;;;;;12.23;11.52;;;-3.30;99.90;;;;;;5030863;28;20189;-39
2024/01/20 06:01:11;;;;;;;12.70;11.70;;;-3.40;99.90;;;;;;5029408;28;20589;-38
2024/01/20 06:03:37;;;;;;;12.53;11.67;;;-3.30;99.90;;;;;;5022861;28;20511;-36
2024/01/20 06:06:04;;;;;;;13.37;12.57;;;-3.30;99.90;;;;;;5027605;28;20191;-37
2024/01/20 06:08:29;;;;;;;13.30;12.23;;;-3.30;1.00;;;;;;5031416;28;20237;-39
2024/01/20 06:10:55;;;;;;;19.80;16.80;;;-3.20;99.90;;;;;;5024972;28;20202;-36
2024/01/20 06:13:21;;;;;;;16.50;15.20;;;-3.20;1.00;;;;;;5021017;28;20191;-36
2024/01/20 06:15:46;;;;;;;15.50;13.90;;;-3.10;99.90;;;;;;5036946;28;20441;-37
2024/01/20 06:18:12;;;;;;;15.30;14.00;;;-3.10;1.00;;;;;;5030048;28;20179;-37
2024/01/20 06:20:37;;;;;;;16.47;14.77;;;-2.90;99.90;;;;;;5036816;28;20216;-36
2024/01/20 06:23:03;;;;;;;14.30;13.20;;;-2.90;99.90;;;;;;5031162;28;20202;-37
2024/01/20 06:25:29;;;;;;;13.47;12.50;;;-2.90;99.90;;;;;;5036737;28;20202;-37
2024/01/20 06:27:54;;;;;;;12.80;12.00;;;-3.00;99.90;;;;;;5029108;28;20385;-37
2024/01/20 06:30:20;;;;;;;14.33;13.43;;;-3.00;99.90;;;;;;5031281;28;20924;-36
2024/01/20 06:32:46;;;;;;;13.00;12.00;;;-3.00;99.90;;;;;;5025472;28;20545;-37
2024/01/20 06:35:11;;;;;;;15.50;14.30;;;-3.00;99.90;;;;;;5036741;28;20189;-37
2024/01/20 06:37:37;;;;;;;13.50;12.70;;;-3.00;99.90;;;;;;5037805;28;20248;-37
2024/01/20 06:40:03;;;;;;;15.07;14.07;;;-3.10;99.90;;;;;;5028819;28;20221;-37
2024/01/20 06:42:28;;;;;;;14.13;13.13;;;-3.10;99.90;;;;;;5033863;28;20207;-37
2024/01/20 06:44:54;;;;;;;14.47;13.37;;;-3.10;1.00;;;;;;5032176;28;20183;-37
2024/01/20 06:47:20;;;;;;;15.53;13.30;;;-3.10;1.00;;;;;;5028617;28;20208;-36
2024/01/20 06:49:50;;;;;;;17.53;16.03;;;-3.10;1.00;;;;;;5036471;28;20350;-37
2024/01/20 06:52:16;;;;;;;15.32;14.23;;;-2.90;99.90;;;;;;5037800;28;20184;-37
2024/01/20 06:54:41;;;;;;;14.52;13.45;;;-2.80;99.90;;;;;;5025469;28;20176;-37
2024/01/20 06:57:07;;;;;;;14.33;13.03;;;-2.80;45.40;;;;;;5038749;28;20666;-39
2024/01/20 06:59:33;;;;;;;15.13;13.93;;;-2.80;1.00;;;;;;5024779;28;20187;-37
2024/01/20 07:01:58;;;;;;;13.80;12.80;;;-2.80;1.00;;;;;;5028473;28;20690;-37
2024/01/20 07:04:24;;;;;;;13.50;12.63;;;-2.70;1.00;;;;;;5026275;28;20216;-38
2024/01/20 07:06:50;;;;;;;13.70;12.80;;;-2.70;99.90;;;;;;5037139;28;20303;-37
2024/01/20 07:09:15;;;;;;;13.97;12.87;;;-2.70;99.90;;;;;;5030955;28;20193;-36
2024/01/20 07:11:41;;;;;;;14.43;13.43;;;-2.80;99.90;;;;;;5028431;28;20641;-37
2024/01/20 07:14:06;;;;;;;14.03;12.67;;;-2.70;99.90;;;;;;5028088;28;20673;-44
2024/01/20 07:16:32;;;;;;;14.30;13.23;;;-2.70;99.90;;;;;;5038608;28;20184;-36
2024/01/20 07:18:58;;;;;;;16.70;15.40;;;-2.80;99.90;;;;;;5035430;28;20759;-37
2024/01/20 07:21:23;;;;;;;16.03;14.77;;;-2.70;1.00;;;;;;5038359;28;20706;-38
2024/01/20 07:23:49;;;;;;;14.13;13.03;;;-2.70;1.00;;;;;;5036802;28;20183;-37
2024/01/20 07:26:15;;;;;;;13.00;12.10;;;-2.70;1.00;;;;;;5028386;28;20279;-37
2024/01/20 07:28:41;;;;;;;14.13;13.15;;;-2.70;1.00;;;;;;5035041;28;20199;-38
2024/01/20 07:31:06;;;;;;;14.77;13.37;;;-2.70;99.90;;;;;;5030111;28;20504;-38
2024/01/20 07:33:33;;;;;;;14.10;13.00;;;-2.70;1.00;;;;;;5030539;28;20834;-38
2024/01/20 07:35:59;;;;;;;14.20;13.10;;;-2.70;1.00;;;;;;5032216;28;20759;-38
2024/01/20 07:38:25;;;;;;;14.35;12.85;;;-2.70;50.80;;;;;;5042016;28;20536;-37
2024/01/20 07:40:53;;;;;;;13.90;12.70;;;-2.70;1.00;;;;;;5032492;28;20190;-37
2024/01/20 07:43:20;;;;;;;12.93;12.13;;;-2.70;76.50;;;;;;5035163;28;20195;-37
2024/01/20 07:45:46;;;;;;;12.00;11.25;;;-2.70;93.00;;;;;;5015034;28;20831;-38
2024/01/20 07:48:11;;;;;;;14.00;12.87;;;-2.60;73.80;;;;;;5038770;28;20260;-38
2024/01/20 07:50:37;;;;;;;13.73;12.63;;;-2.60;1.00;;;;;;5008182;28;20181;-38
2024/01/20 07:53:03;;;;;;;13.17;12.27;;;-2.60;1.00;;;;;;5038586;28;20190;-37
2024/01/20 07:55:29;;;;;;;13.65;12.75;;;-2.50;1.00;;;;;;5030099;28;20243;-37
2024/01/20 07:57:55;;;;;;;13.80;12.90;;;-2.40;85.50;;;;;;5039132;28;20187;-38
2024/01/20 08:00:20;;;;;;;14.23;13.13;;;-2.40;53.10;;;;;;5038931;28;20630;-38
2024/01/20 08:02:47;;;;;;;14.03;12.93;;;-2.30;84.80;;;;;;5035065;28;20230;-43
2024/01/20 08:05:12;;;;;;;13.98;12.88;;;-2.20;55.80;;;;;;5040570;28;20181;-54
2024/01/20 08:07:38;;;;;;;14.07;13.07;;;-2.10;1.00;;;;;;5041554;28;20228;-38
2024/01/20 08:10:04;;;;;;;13.70;12.60;;;-2.10;1.00;;;;;;5032823;28;20210;-38
2024/01/20 08:12:31;;;;;;;14.35;13.02;;;-1.90;1.00;;;;;;5025775;28;20188;-37
2024/01/20 08:14:56;;;;;;;13.90;12.85;;;-1.80;1.00;;;;;;5028982;28;20186;-38
2024/01/20 08:17:23;;;;;;;14.47;13.27;;;-1.60;1.00;;;;;;5034502;28;20525;-38
2024/01/20 08:19:51;;;;;;;13.77;12.65;;;-1.30;1.00;;;;;;5035647;28;20246;-40
2024/01/20 08:22:17;;;;;;;15.77;14.23;;;-0.90;1.00;;;;;;5039427;28;20186;-38
2024/01/20 08:24:43;;;;;;;14.43;13.35;;;-0.50;99.90;;;;;;5036986;28;20240;-37
2024/01/20 08:27:08;;;;;;;15.67;14.30;;;0.00;99.90;;;;;;5039492;28;20190;-38
2024/01/20 08:29:34;;;;;;;14.37;13.17;;;0.50;1.00;;;;;;5038680;28;20186;-42
2024/01/20 08:32:00;;;;;;;14.80;13.70;;;1.00;99.90;;;;;;5034853;28;20229;-36
2024/01/20 08:34:26;;;;;;;14.27;13.27;;;1.50;99.90;;;;;;5032155;28;20268;-37
2024/01/20 08:36:51;;;;;;;14.20;13.10;;;2.20;3.50;;;;;;5025871;28;20510;-36
2024/01/20 08:39:20;;;;;;;14.80;13.90;;;2.70;1.00;;;;;;5040342;28;20420;-37
2024/01/20 08:41:47;;;;;;;14.30;12.80;;;3.20;1.00;;;;;;5039756;28;20186;-37
2024/01/20 08:44:13;;;;;;;13.30;12.30;;;3.70;1.00;;;;;;5040915;28;20197;-38
2024/01/20 08:46:38;;;;;;;13.88;12.85;;;4.10;1.00;;;;;;5025443;28;20583;-37
2024/01/20 08:49:04;;;;;;;13.60;12.80;;;4.40;1.00;;;;;;5035995;28;20221;-38
2024/01/20 08:51:30;;;;;;;13.77;12.67;;;4.60;1.00;;;;;;5027421;28;20185;-37
2024/01/20 08:53:55;;;;;;;13.27;12.37;;;5.00;1.00;;;;;;5040765;28;20189;-37
2024/01/20 08:56:21;;;;;;;13.43;12.53;;;5.10;99.90;;;;;;5031275;28;20561;-38
2024/01/20 08:58:46;;;;;;;13.97;13.07;;;5.60;99.90;;;;;;5040830;28;20464;-37
2024/01/20 09:01:12;;;;;;;14.43;13.33;;;5.80;99.90;;;;;;5030046;28;20182;-51
2024/01/20 09:03:38;;;;;;;14.37;13.33;;;6.30;1.00;;;;;;5033597;28;20604;-42
2024/01/20 09:06:04;;;;;;;15.40;14.30;;;6.70;1.00;;;;;;5012795;28;20186;-54
2024/01/20 09:08:29;;;;;;;15.23;14.13;;;7.00;1.00;;;;;;5030512;28;20209;-55
2024/01/20 09:10:56;;;;;;;14.73;13.67;;;7.20;99.90;;;;;;5032387;28;20445;-50
2024/01/20 09:13:21;;;;;;;15.37;14.33;;;7.00;40.70;;;;;;5032089;28;20178;-42
2024/01/20 09:15:47;;;;;;;15.00;14.00;;;7.10;58.50;;;;;;5031541;28;20442;-54
2024/01/20 09:18:16;;;;;;;13.87;12.97;;;7.30;59.90;;;;;;5039228;28;20599;-50
2024/01/20 09:20:42;;;;;;;14.10;13.20;;;7.70;59.30;;;;;;5038865;28;20273;-52
2024/01/20 09:23:07;;;;;;;14.73;13.60;;;7.90;58.30;;;;;;5040103;28;20519;-52
2024/01/20 09:25:33;;;;;;;14.03;12.97;;;8.20;56.70;;;;;;5037174;28;20903;-54
2024/01/20 09:28:00;;;;;;;12.73;11.90;;;8.20;53.00;;;;;;5030939;28;20222;-50
2024/01/20 09:30:25;;;;;;;12.50;11.80;;;8.60;52.60;;;;;;5037784;28;20620;-52
2024/01/20 09:32:51;;;;;;;13.30;12.50;;;8.70;51.80;;;;;;5030266;28;20413;-50
2024/01/20 09:35:17;;;;;;;13.43;12.57;;;8.50;47.80;;;;;;5039993;28;20211;-55
2024/01/20 09:37:42;;;;;;;12.67;11.97;;;8.30;49.00;;;;;;5030220;28;20182;-53
2024/01/20 09:40:08;;;;;;;13.40;12.60;;;8.30;49.50;;;;;;5039543;28;20212;-53
2024/01/20 09:42:34;;;;;;;12.73;11.93;;;8.20;49.50;;;;;;5031939;28;20498;-51
2024/01/20 09:45:00;;;;;;;13.00;12.20;;;8.10;47.60;;;;;;5037409;28;20440;-53
2024/01/20 09:47:27;;;;;;;12.60;11.70;;;7.80;49.80;;;;;;5019660;28;20206;-53
2024/01/20 09:49:53;;;;;;;12.03;11.33;;;8.00;48.70;;;;;;5037039;28;21676;-51
2024/01/20 09:52:29;;;;;;;12.93;12.20;;;8.20;50.30;;;;;;5034890;28;20432;-54
2024/01/20 09:55:21;;;;;;;12.63;11.90;;;8.50;49.60;;;;;;5035496;28;20874;-53
2024/01/20 09:57:48;;;;;;;12.60;11.70;;;8.10;46.20;;;;;;5024179;28;20433;-51
2024/01/20 10:00:16;;;;;;;13.00;12.10;;;7.70;47.60;;;;;;5039156;28;20420;-49
2024/01/20 10:02:45;;;;;;;13.33;12.43;;;7.40;48.00;;;;;;5030154;28;20437;-55
2024/01/20 10:05:11;;;;;;;13.50;12.60;;;7.60;49.40;;;;;;5039415;28;20958;-53
2024/01/20 10:07:37;;;;;;;13.73;12.77;;;7.70;48.80;;;;;;5027948;28;20476;-50
2024/01/20 10:10:03;;;;;;;12.70;11.87;;;8.00;49.60;;;;;;5039211;28;20416;-46
2024/01/20 10:12:28;;;;;;;13.23;12.40;;;8.00;48.80;;;;;;5026169;28;20678;-52
2024/01/20 10:14:54;;;;;;;12.80;12.10;;;7.60;48.00;;;;;;5036167;28;20538;-46
2024/01/20 10:17:20;;;;;;;12.93;12.23;;;7.80;49.40;;;;;;5029968;28;20182;-52
2024/01/20 10:19:46;;;;;;;13.37;12.57;;;8.10;49.20;;;;;;5039454;28;20340;-52
2024/01/20 10:22:12;;;;;;;13.77;12.87;;;8.20;47.80;;;;;;5004186;28;20210;-55
2024/01/20 10:24:52;;;;;;;13.43;12.53;;;8.40;47.70;;;;;;5030965;28;20519;-55
2024/01/20 10:27:19;;;;;;;13.50;12.70;;;8.40;47.60;;;;;;5035649;28;20775;-46
2024/01/20 10:29:46;;;;;;;12.50;11.80;;;8.30;46.90;;;;;;5039501;28;20423;-53
2024/01/20 10:32:11;;;;;;;13.53;12.63;;;8.20;47.30;;;;;;5036144;28;20478;-52
2024/01/20 10:34:37;;;;;;;12.80;12.10;;;7.90;49.10;;;;;;5020910;28;20424;-53
2024/01/20 10:37:13;;;;;;;12.10;11.40;;;8.10;49.10;;;;;;5038681;28;20178;-50
2024/01/20 10:39:43;;;;;;;13.03;12.13;;;8.00;49.40;;;;;;5029942;28;20202;-51
2024/01/20 10:42:13;;;;;;;13.57;12.70;;;7.90;48.50;;;;;;5033507;28;20517;-53
2024/01/20 10:44:44;;;;;;;13.40;12.53;;;7.70;48.90;;;;;;5033729;28;20511;-54
2024/01/20 10:47:31;;;;;;;13.40;12.50;;;7.70;48.80;;;;;;5033404;28;20463;-50
2024/01/20 10:50:01;;;;;;;13.93;12.93;;;7.80;49.80;;;;;;5034510;28;20475;-55
2024/01/20 10:52:26;;;;;;;13.83;13.00;;;8.00;50.10;;;;;;5023658;28;20583;-55
2024/01/20 10:54:52;;;;;;;13.93;12.87;;;7.90;49.50;;;;;;5036516;28;20910;-46
2024/01/20 10:57:17;;;;;;;13.93;13.00;;;7.80;48.50;;;;;;5025202;28;20183;-43
2024/01/20 10:59:44;;;;;;;14.27;13.30;;;7.90;49.70;;;;;;5036537;28;20185;-53
2024/01/20 11:02:11;;;;;;;14.40;13.37;;;7.50;48.50;;;;;;5033472;28;20170;-37
2024/01/20 11:04:39;;;;;;;14.90;13.90;;;7.60;49.70;;;;;;5041309;28;20763;-38
2024/01/20 11:07:08;;;;;;;13.80;12.90;;;7.40;49.10;;;;;;5040932;28;20787;-43
2024/01/20 11:09:34;;;;;;;14.10;13.20;;;7.50;49.30;;;;;;5041206;28;20431;-36
2024/01/20 11:12:01;;;;;;;14.10;13.20;;;7.60;49.80;;;;;;5029857;28;20988;-36
2024/01/20 11:14:33;;;;;;;13.50;12.70;;;7.50;49.30;;;;;;5029864;28;20867;-36
2024/01/20 11:17:12;;;;;;;14.57;13.60;;;8.00;50.30;;;;;;5042601;28;20417;-38
2024/01/20 11:19:38;;;;;;;15.37;14.27;;;7.80;49.00;;;;;;5032398;28;20467;-37
2024/01/20 11:22:04;;;;;;;13.87;13.00;;;8.20;49.20;;;;;;5042478;28;20412;-35
2024/01/20 11:24:41;;;;;;;14.53;13.60;;;7.70;48.90;;;;;;5032379;28;20416;-36
2024/01/20 11:27:07;;;;;;;14.33;13.43;;;8.10;50.80;;;;;;5042551;28;20419;-37
2024/01/20 11:29:32;;;;;;;13.53;12.60;;;8.20;49.00;;;;;;5034076;28;20416;-38
2024/01/20 11:31:58;;;;;;;14.40;13.20;;;8.60;49.90;;;;;;5036236;28;20189;-37
2024/01/20 11:34:24;;;;;;;15.20;14.10;;;9.10;47.80;;;;;;5028470;28;20607;-38
2024/01/20 11:36:51;;;;;;;15.00;14.00;;;9.00;46.60;;;;;;5039719;28;20193;-38
2024/01/20 11:39:21;;;;;;;14.77;13.77;;;8.90;47.10;;;;;;5034446;28;20235;-42
2024/01/20 11:41:57;;;;;;;15.53;14.23;;;8.30;45.90;;;;;;5040272;28;20466;-37
2024/01/20 11:44:23;;;;;;;15.10;14.20;;;8.40;47.60;;;;;;5038981;28;20428;-37
2024/01/20 11:46:48;;;;;;;15.60;14.60;;;7.90;48.00;;;;;;5041886;28;20910;-37
2024/01/20 11:49:14;;;;;;;15.40;14.20;;;7.80;49.60;;;;;;5041101;28;20216;-37
2024/01/20 11:51:40;;;;;;;15.70;14.50;;;7.80;50.10;;;;;;5042472;28;20194;-38
2024/01/20 11:54:05;;;;;;;15.17;13.93;;;8.20;51.30;;;;;;5030208;28;20280;-37
2024/01/20 11:56:31;;;;;;;15.60;14.60;;;8.50;48.60;;;;;;5032821;28;20339;-37
2024/01/20 11:58:56;;;;;;;15.73;14.40;;;8.40;50.00;;;;;;5031803;28;20190;-39
2024/01/20 12:01:22;;;;;;;15.13;14.20;;;7.80;49.20;;;;;;5041261;28;20261;-37
2024/01/20 12:03:48;;;;;;;14.77;13.77;;;8.10;50.40;;;;;;5027783;28;20205;-37
2024/01/20 12:06:14;;;;;;;14.63;13.70;;;8.40;49.50;;;;;;5035986;28;20257;-38
2024/01/20 12:08:41;;;;;;;15.20;14.30;;;8.80;49.10;;;;;;5022990;28;20214;-36
2024/01/20 12:11:07;;;;;;;14.30;13.40;;;8.50;48.90;;;;;;5022687;28;20803;-37
2024/01/20 12:13:35;;;;;;;14.37;13.43;;;8.10;48.20;;;;;;5034154;28;20427;-37
2024/01/20 12:16:01;;;;;;;14.10;13.30;;;7.50;49.00;;;;;;5040804;28;20192;-38
2024/01/20 12:18:27;;;;;;;15.90;14.80;;;7.20;50.60;;;;;;5037703;28;20467;-38
2024/01/20 12:20:52;;;;;;;14.43;13.47;;;7.40;51.50;;;;;;5041659;28;20413;-36
2024/01/20 12:23:22;;;;;;;14.30;13.40;;;7.70;50.90;;;;;;5033418;28;20636;-37
2024/01/20 12:25:54;;;;;;;14.67;13.77;;;8.10;51.10;;;;;;5032527;28;20499;-38
2024/01/20 12:28:21;;;;;;;14.80;13.80;;;8.10;49.10;;;;;;5039691;28;20490;-37